Larvik — C6VC2 — position and weather

sailwx.info

Track history (hours):
 
Tides and Currents Weather Stations Pressure Air Temp Water Temp Dewpoint Dewpoint Depression Visibility Wind Speed Wind Dir Waves Ship Positions

Larvik

Last reported at 2017-Feb-20 20:28 UTC. Time now 2017-Feb-26 07:40 UTC.
Position N 09°13' W 079°55'.

Length 214 m; draft 11.1 m.

Type: Ship (hazmat cat D). MMSI: 308371000.

Date/timePositionNaut miles runAvg speedWind from/ knotsBaromVisibWave heightAir tempDewpointWater temp
2017-Feb-20 20:28N 09°13' W 079°55'1 0.1
2017-Feb-20 12:19N 09°13' W 079°56'0 0.0
2017-Feb-20 11:07N 09°13' W 079°56'1 0.2
2017-Feb-20 03:33N 09°15' W 079°55'2 1.9
2017-Feb-20 02:33N 09°16' W 079°55'0 0.4
2017-Feb-20 01:33N 09°17' W 079°55'3 3.2
2017-Feb-20 00:33N 09°20' W 079°55'4 4.2
2017-Feb-19 23:33N 09°24' W 079°55'4 3.3
2017-Feb-19 22:28N 09°27' W 079°57'0 0.0
2017-Feb-19 21:25N 09°27' W 079°57'0 0.0
2017-Feb-19 20:31N 09°27' W 079°57'0 0.0
2017-Feb-19 19:25N 09°27' W 079°57'0 0.0
2017-Feb-19 18:31N 09°27' W 079°57'0 0.0
2017-Feb-19 17:34N 09°27' W 079°57'0 0.0
2017-Feb-19 16:31N 09°27' W 079°57'0 0.0
2017-Feb-19 15:31N 09°27' W 079°57'0 0.0
2017-Feb-19 14:31N 09°27' W 079°57'0 0.0
2017-Feb-19 13:31N 09°27' W 079°57'0 0.0
2017-Feb-19 12:28N 09°27' W 079°57'0 0.0
2017-Feb-19 11:31N 09°27' W 079°57'0 0.0
2017-Feb-19 10:28N 09°27' W 079°57'0 0.0
2017-Feb-19 09:25N 09°27' W 079°57'0 0.0
2017-Feb-19 08:31N 09°27' W 079°57'0 0.0
2017-Feb-19 07:31N 09°27' W 079°57'0 0.0
2017-Feb-19 06:31N 09°27' W 079°57'0 0.0
2017-Feb-19 05:31N 09°27' W 079°57'0 0.0
2017-Feb-19 04:31N 09°27' W 079°57'0 0.0
2017-Feb-19 03:34N 09°27' W 079°57'0 0.0
2017-Feb-19 02:31N 09°27' W 079°57'0 0.0
2017-Feb-19 01:31N 09°27' W 079°57'0 0.1
2017-Feb-19 00:31N 09°27' W 079°57'0 0.0
2017-Feb-18 23:22N 09°27' W 079°57'0 0.0
2017-Feb-18 22:31N 09°27' W 079°57'0 0.0
2017-Feb-18 21:16N 09°27' W 079°57'0 0.0
2017-Feb-18 20:31N 09°27' W 079°57'0 0.0
2017-Feb-18 19:22N 09°27' W 079°57'0 0.0
2017-Feb-18 18:31N 09°27' W 079°57'0 0.0
2017-Feb-18 17:25N 09°27' W 079°57'0 0.0
2017-Feb-18 16:31N 09°27' W 079°57'0 0.0
2017-Feb-18 15:28N 09°27' W 079°57'0 0.0
2017-Feb-18 14:34N 09°27' W 079°57'0 0.0
2017-Feb-18 13:31N 09°27' W 079°57'0 0.0
2017-Feb-18 12:31N 09°27' W 079°57'0 0.0
2017-Feb-18 11:31N 09°27' W 079°57'0 0.1
2017-Feb-18 10:31N 09°27' W 079°57'0 0.1
2017-Feb-18 09:22N 09°27' W 079°57'0 0.0
2017-Feb-18 01:19N 09°27' W 079°57'0 0.2
2017-Feb-18 00:19N 09°27' W 079°57'0 0.0
2017-Feb-17 23:31N 09°27' W 079°57'1 1.3
2017-Feb-17 22:33N 09°28' W 079°56'7 6.5
2017-Feb-17 21:32N 09°33' W 079°52'  
2017-Feb-14 06:33N 09°27' W 079°55'8 8.5
2017-Feb-14 05:33N 09°18' W 079°55'2 1.8
2017-Feb-14 04:33N 09°16' W 079°55'0 0.5
2017-Feb-14 03:33N 09°16' W 079°55'  
Track history (hours):
 
Tides and Currents Weather Stations Pressure Air Temp Water Temp Dewpoint Dewpoint Depression Visibility Wind Speed Wind Dir Waves Ship Positions

Larvik

Last reported at 2017-Feb-20 20:28 UTC. Time now 2017-Feb-26 07:40 UTC.
Position N 09°13' W 079°55'.

Length 214 m; draft 11.1 m.

Type: Ship (hazmat cat D). MMSI: 308371000.

Date/timePositionNaut miles runAvg speedWind from/ knotsBaromVisibWave heightAir tempDewpointWater temp
2017-Feb-20 20:28N 09°13' W 079°55'1 0.1
2017-Feb-20 12:19N 09°13' W 079°56'0 0.0
2017-Feb-20 11:07N 09°13' W 079°56'1 0.2
2017-Feb-20 03:33N 09°15' W 079°55'2 1.9
2017-Feb-20 02:33N 09°16' W 079°55'0 0.4
2017-Feb-20 01:33N 09°17' W 079°55'3 3.2
2017-Feb-20 00:33N 09°20' W 079°55'4 4.2
2017-Feb-19 23:33N 09°24' W 079°55'4 3.3
2017-Feb-19 22:28N 09°27' W 079°57'0 0.0
2017-Feb-19 21:25N 09°27' W 079°57'0 0.0
2017-Feb-19 20:31N 09°27' W 079°57'0 0.0
2017-Feb-19 19:25N 09°27' W 079°57'0 0.0
2017-Feb-19 18:31N 09°27' W 079°57'0 0.0
2017-Feb-19 17:34N 09°27' W 079°57'0 0.0
2017-Feb-19 16:31N 09°27' W 079°57'0 0.0
2017-Feb-19 15:31N 09°27' W 079°57'0 0.0
2017-Feb-19 14:31N 09°27' W 079°57'0 0.0
2017-Feb-19 13:31N 09°27' W 079°57'0 0.0
2017-Feb-19 12:28N 09°27' W 079°57'0 0.0
2017-Feb-19 11:31N 09°27' W 079°57'0 0.0
2017-Feb-19 10:28N 09°27' W 079°57'0 0.0
2017-Feb-19 09:25N 09°27' W 079°57'0 0.0
2017-Feb-19 08:31N 09°27' W 079°57'0 0.0
2017-Feb-19 07:31N 09°27' W 079°57'0 0.0
2017-Feb-19 06:31N 09°27' W 079°57'0 0.0
2017-Feb-19 05:31N 09°27' W 079°57'0 0.0
2017-Feb-19 04:31N 09°27' W 079°57'0 0.0
2017-Feb-19 03:34N 09°27' W 079°57'0 0.0
2017-Feb-19 02:31N 09°27' W 079°57'0 0.0
2017-Feb-19 01:31N 09°27' W 079°57'0 0.1
2017-Feb-19 00:31N 09°27' W 079°57'0 0.0
2017-Feb-18 23:22N 09°27' W 079°57'0 0.0
2017-Feb-18 22:31N 09°27' W 079°57'0 0.0
2017-Feb-18 21:16N 09°27' W 079°57'0 0.0
2017-Feb-18 20:31N 09°27' W 079°57'0 0.0
2017-Feb-18 19:22N 09°27' W 079°57'0 0.0
2017-Feb-18 18:31N 09°27' W 079°57'0 0.0
2017-Feb-18 17:25N 09°27' W 079°57'0 0.0
2017-Feb-18 16:31N 09°27' W 079°57'0 0.0
2017-Feb-18 15:28N 09°27' W 079°57'0 0.0
2017-Feb-18 14:34N 09°27' W 079°57'0 0.0
2017-Feb-18 13:31N 09°27' W 079°57'0 0.0
2017-Feb-18 12:31N 09°27' W 079°57'0 0.0
2017-Feb-18 11:31N 09°27' W 079°57'0 0.1
2017-Feb-18 10:31N 09°27' W 079°57'0 0.1
2017-Feb-18 09:22N 09°27' W 079°57'0 0.0
2017-Feb-18 01:19N 09°27' W 079°57'0 0.2
2017-Feb-18 00:19N 09°27' W 079°57'0 0.0
2017-Feb-17 23:31N 09°27' W 079°57'1 1.3
2017-Feb-17 22:33N 09°28' W 079°56'7 6.5
2017-Feb-17 21:32N 09°33' W 079°52'  
2017-Feb-14 06:33N 09°27' W 079°55'8 8.5
2017-Feb-14 05:33N 09°18' W 079°55'2 1.8
2017-Feb-14 04:33N 09°16' W 079°55'0 0.5
2017-Feb-14 03:33N 09°16' W 079°55'  

Dump ship's entire track history